Time;durP1;ratioP1;P1;durP2;ratioP2;P2;SDS_P1;SDS_P2;PMS_P1;PMS_P2;Temp;Humidity;BMP_temperature;BMP_pressure;BME280_temperature;BME280_humidity;BME280_pressure;Samples;Min_cycle;Max_cycle;Signal;HPM_P1;HPM_P2
2021/08/18 00:01:51;;;;;;;;;5.00;4.00;;;;;13.43;83.99;99639.09;2388312;39;2754355;-54
2021/08/18 00:04:19;;;;;;;;;4.00;4.00;;;;;13.51;83.11;99640.28;2388480;31;2754351;-54
2021/08/18 00:06:46;;;;;;;;;4.00;4.00;;;;;13.16;87.04;99632.03;2388161;47;2754359;-55
2021/08/18 00:09:14;;;;;;;;;2.50;2.50;;;;;13.09;84.97;99630.78;2388959;46;2745012;-56
2021/08/18 00:11:41;;;;;;;;;4.00;4.00;;;;;12.94;86.70;99633.59;2388854;31;2752268;-56
2021/08/18 00:14:09;;;;;;;;;5.00;3.00;;;;;12.70;87.89;99632.69;2390736;31;2740810;-52
2021/08/18 00:16:36;;;;;;;;;4.00;4.00;;;;;12.51;88.91;99631.28;2389219;39;2749155;-54
2021/08/18 00:19:04;;;;;;;;;4.00;4.00;;;;;12.49;90.41;99627.84;2388061;39;2752296;-54
2021/08/18 00:21:32;;;;;;;;;4.50;4.50;;;;;12.72;90.27;99633.44;2388358;39;2749186;-53
2021/08/18 00:23:59;;;;;;;;;5.00;5.00;;;;;13.15;88.08;99633.03;2388086;39;2747111;-52
2021/08/18 00:26:27;;;;;;;;;4.00;4.00;;;;;13.06;88.04;99631.88;2390157;31;2751230;-54
2021/08/18 00:28:55;;;;;;;;;5.00;4.00;;;;;12.99;87.21;99629.72;2391398;31;2750205;-54
2021/08/18 00:31:24;;;;;;;;;5.50;5.00;;;;;12.84;89.38;99632.53;2393103;31;2746050;-53
2021/08/18 00:33:51;;;;;;;;;6.00;6.00;;;;;12.67;89.33;99632.91;2389599;31;2734564;-55
2021/08/18 00:36:19;;;;;;;;;5.00;5.00;;;;;12.96;89.75;99637.06;2388866;39;2744980;-51
2021/08/18 00:38:47;;;;;;;;;5.00;5.00;;;;;12.80;90.00;99636.44;2399691;31;1811778;-56
2021/08/18 00:41:15;;;;;;;;;4.00;4.00;;;;;12.51;91.07;99636.69;2401181;31;2747059;-56
2021/08/18 00:43:43;;;;;;;;;7.00;6.00;;;;;12.61;90.60;99638.72;2389873;31;2742953;-55
2021/08/18 00:46:10;;;;;;;;;4.50;4.50;;;;;12.69;90.69;99647.09;2389095;31;2750184;-54
2021/08/18 00:48:38;;;;;;;;;7.00;4.00;;;;;12.73;90.71;99651.31;2388982;31;2754363;-55
2021/08/18 00:51:05;;;;;;;;;7.00;5.00;;;;;12.60;91.23;99643.25;2389960;31;2744984;-55
2021/08/18 00:53:35;;;;;;;;;6.25;6.25;;;;;12.60;91.85;99645.06;2395345;46;1816971;-56
2021/08/18 00:56:04;;;;;;;;;6.00;5.00;;;;;12.58;91.19;99636.22;2408376;31;1813878;-54
2021/08/18 00:58:32;;;;;;;;;5.00;5.00;;;;;12.40;92.56;99633.88;2401901;31;2746037;-56
2021/08/18 01:00:59;;;;;;;;;3.50;3.50;;;;;12.22;91.91;99627.09;2388401;46;2746022;-54
2021/08/18 01:03:28;;;;;;;;;3.00;3.00;;;;;12.02;94.70;99629.31;2398129;31;1807590;-55
2021/08/18 01:05:56;;;;;;;;;4.50;4.50;;;;;12.10;95.49;99620.72;2388901;31;2750181;-54
2021/08/18 01:08:24;;;;;;;;;6.00;4.75;;;;;12.19;95.85;99624.59;2397390;31;1811742;-56
2021/08/18 01:10:52;;;;;;;;;7.00;6.00;;;;;12.49;93.96;99627.84;2409314;31;1808698;-53
2021/08/18 01:13:21;;;;;;;;;6.00;4.75;;;;;12.39;92.70;99631.28;2408854;31;1808589;-55
2021/08/18 01:15:49;;;;;;;;;7.50;6.00;;;;;12.51;92.99;99628.59;2408681;31;1803456;-54
2021/08/18 01:18:16;;;;;;;;;5.00;5.00;;;;;12.69;91.77;99617.47;2400687;31;2745017;-55
2021/08/18 01:20:44;;;;;;;;;5.00;5.00;;;;;12.29;93.60;99621.16;2388734;39;2745052;-55
2021/08/18 01:23:14;;;;;;;;;6.00;5.00;;;;;12.14;94.55;99634.81;2390582;31;2748101;-56
2021/08/18 01:25:44;;;;;;;;;5.00;5.00;;;;;12.49;94.15;99637.75;2389825;31;2747444;-58
2021/08/18 01:28:14;;;;;;;;;5.00;5.00;;;;;12.58;92.55;99629.00;2395752;31;1813854;-54
2021/08/18 01:30:43;;;;;;;;;4.00;4.00;;;;;12.60;91.18;99626.22;2400706;39;2752343;-56
2021/08/18 01:33:16;;;;;;;;;5.00;5.00;;;;;12.86;88.88;99637.84;2388453;39;2746037;-56
2021/08/18 01:35:49;;;;;;;;;5.00;4.00;;;;;12.98;87.65;99633.38;2388547;39;2754359;-54
2021/08/18 01:38:20;;;;;;;;;3.00;3.00;;;;;12.66;89.94;99634.72;2396036;31;1810678;-55
2021/08/18 01:40:52;;;;;;;;;6.25;4.00;;;;;13.20;86.76;99633.56;2407406;31;1815953;-56
2021/08/18 01:43:22;;;;;;;;;4.00;4.00;;;;;13.15;84.83;99641.13;2401347;31;2747059;-54
2021/08/18 01:45:51;;;;;;;;;4.00;4.00;;;;;13.23;85.23;99641.41;2390129;31;2743935;-57
2021/08/18 01:48:23;;;;;;;;;4.00;4.00;;;;;13.40;83.71;99632.09;2389755;31;2748117;-54
2021/08/18 01:50:55;;;;;;;;;4.00;3.00;;;;;13.43;83.08;99644.50;2389010;39;2738750;-53
2021/08/18 01:53:27;;;;;;;;;4.50;4.00;;;;;13.36;83.79;99644.09;2388741;39;2754399;-54
2021/08/18 01:56:01;;;;;;;;;3.00;3.00;;;;;13.29;86.09;99646.38;2396845;31;1808690;-55
2021/08/18 01:58:32;;;;;;;;;7.00;5.00;;;;;13.01;87.12;99650.22;2400791;39;2745025;-54
2021/08/18 02:01:07;;;;;;;;;4.50;4.50;;;;;12.65;88.99;99653.69;2396281;31;1809653;-52
2021/08/18 02:03:35;;;;;;;;;8.50;5.00;;;;;12.35;91.13;99646.81;2400497;31;2745028;-53
2021/08/18 02:06:03;;;;;;;;;4.00;4.00;;;;;12.34;92.51;99646.91;2388738;31;2750228;-52
2021/08/18 02:08:31;;;;;;;;;3.00;3.00;;;;;12.52;91.91;99638.38;2389425;31;2736639;-55
2021/08/18 02:10:58;;;;;;;;;5.50;4.00;;;;;12.30;92.32;99643.56;2388082;39;2747068;-54
2021/08/18 02:13:27;;;;;;;;;5.00;4.50;;;;;12.35;93.80;99644.13;2388816;39;2752292;-56
2021/08/18 02:15:55;;;;;;;;;4.25;4.25;;;;;12.42;92.62;99641.84;2394983;31;1816965;-53
2021/08/18 02:18:24;;;;;;;;;5.00;4.00;;;;;12.78;92.37;99651.84;2406973;39;1819039;-53
2021/08/18 02:20:52;;;;;;;;;5.75;5.50;;;;;12.46;93.41;99646.06;2408066;31;1811769;-54
2021/08/18 02:23:21;;;;;;;;;5.50;4.25;;;;;12.24;95.37;99641.28;2407543;31;1808618;-55
2021/08/18 02:25:50;;;;;;;;;5.50;5.50;;;;;12.47;95.44;99640.53;2408342;31;1813869;-57
2021/08/18 02:28:19;;;;;;;;;5.50;5.50;;;;;12.27;94.48;99649.16;2407883;31;1809684;-53
2021/08/18 02:30:46;;;;;;;;;5.00;4.00;;;;;12.23;95.59;99648.50;2401460;31;2751233;-55
2021/08/18 02:33:14;;;;;;;;;3.50;3.50;;;;;12.29;94.07;99658.84;2390265;31;2752304;-53
2021/08/18 02:35:42;;;;;;;;;6.50;5.00;;;;;12.60;95.04;99661.22;2390377;31;2746018;-56
2021/08/18 02:38:10;;;;;;;;;5.00;5.00;;;;;12.48;93.76;99663.81;2392118;31;2744969;-56
2021/08/18 02:40:39;;;;;;;;;5.00;5.00;;;;;12.35;94.70;99668.34;2397098;31;1815963;-55
2021/08/18 02:43:06;;;;;;;;;5.00;5.00;;;;;12.31;95.42;99645.28;2402189;31;2742909;-56
2021/08/18 02:45:34;;;;;;;;;5.00;5.00;;;;;12.14;94.11;99641.06;2390314;31;2744988;-55
2021/08/18 02:48:03;;;;;;;;;6.75;6.25;;;;;12.43;93.45;99639.06;2397252;31;1806548;-56
2021/08/18 02:50:32;;;;;;;;;6.00;6.00;;;;;12.34;94.08;99631.59;2402213;39;2737696;-54
2021/08/18 02:53:00;;;;;;;;;6.50;5.50;;;;;12.19;93.91;99640.72;2389827;31;2742913;-55
2021/08/18 02:55:30;;;;;;;;;4.00;4.00;;;;;12.39;95.37;99640.22;2391136;31;2754351;-53
2021/08/18 02:57:59;;;;;;;;;6.00;5.00;;;;;12.42;95.34;99645.38;2397769;31;1813844;-57
2021/08/18 03:00:27;;;;;;;;;5.00;5.00;;;;;12.22;95.86;99645.94;2402035;39;2740842;-53
2021/08/18 03:02:55;;;;;;;;;7.00;7.00;;;;;12.25;94.28;99648.41;2390578;31;2730413;-56
2021/08/18 03:05:23;;;;;;;;;6.00;4.50;;;;;12.29;95.44;99647.22;2390139;31;2742925;-51
2021/08/18 03:07:51;;;;;;;;;5.00;5.00;;;;;12.15;95.08;99642.78;2389699;39;2748117;-51
2021/08/18 03:10:18;;;;;;;;;5.00;5.00;;;;;12.32;94.82;99647.00;2391607;31;2744976;-52
2021/08/18 03:12:46;;;;;;;;;5.50;4.00;;;;;12.29;94.80;99645.38;2389854;31;2752300;-54
2021/08/18 03:15:14;;;;;;;;;5.00;5.00;;;;;12.23;96.41;99631.50;2390751;31;2741880;-54
2021/08/18 03:17:42;;;;;;;;;6.75;5.75;;;;;12.63;95.31;99650.25;2396829;31;1806539;-52
2021/08/18 03:20:11;;;;;;;;;6.00;6.00;;;;;12.55;95.31;99652.63;2402713;31;2736662;-51
2021/08/18 03:22:38;;;;;;;;;8.50;6.00;;;;;12.51;96.25;99658.22;2391201;31;2730402;-54
2021/08/18 03:25:07;;;;;;;;;5.00;5.00;;;;;12.69;92.70;99650.69;2388751;39;2742959;-53
2021/08/18 03:27:36;;;;;;;;;6.50;5.00;;;;;12.55;94.99;99653.47;2388325;47;2739824;-54
2021/08/18 03:30:06;;;;;;;;;6.00;6.00;;;;;12.29;95.82;99648.06;2389769;31;2742929;-52
2021/08/18 03:32:34;;;;;;;;;5.50;5.00;;;;;12.05;96.05;99645.25;2388903;31;2746049;-54
2021/08/18 03:35:03;;;;;;;;;6.00;6.00;;;;;11.98;97.79;99638.56;2388104;39;2744994;-54
2021/08/18 03:37:31;;;;;;;;;4.00;4.00;;;;;12.06;97.28;99657.75;2388386;31;2754347;-54
2021/08/18 03:39:58;;;;;;;;;6.00;4.50;;;;;11.96;97.03;99653.94;2389718;31;2736647;-53
2021/08/18 03:42:25;;;;;;;;;7.00;5.00;;;;;12.03;97.84;99647.19;2388410;47;2745004;-55
2021/08/18 03:44:53;;;;;;;;;7.00;5.50;;;;;12.20;97.27;99647.88;2389181;39;2737705;-55
2021/08/18 03:47:21;;;;;;;;;6.00;5.00;;;;;12.37;95.91;99638.59;2394922;47;1806546;-55
2021/08/18 03:49:49;;;;;;;;;4.50;4.00;;;;;12.06;99.17;99632.66;2400337;39;2744985;-53
2021/08/18 03:52:16;;;;;;;;;5.00;5.00;;;;;12.34;98.48;99634.28;2388719;31;2746030;-54
2021/08/18 03:54:43;;;;;;;;;5.00;5.00;;;;;12.34;96.77;99628.06;2389082;31;2746050;-53
2021/08/18 03:57:12;;;;;;;;;7.75;7.00;;;;;12.95;93.77;99629.97;2395352;39;1804891;-54
2021/08/18 03:59:39;;;;;;;;;8.00;6.00;;;;;12.83;92.89;99629.97;2402423;31;2727270;-54
2021/08/18 04:02:07;;;;;;;;;6.00;6.00;;;;;12.82;92.41;99637.19;2389120;47;2737733;-56
2021/08/18 04:04:34;;;;;;;;;6.00;6.00;;;;;13.18;90.00;99633.66;2389904;39;2744997;-52
2021/08/18 04:07:02;;;;;;;;;6.00;5.00;;;;;13.25;89.01;99642.16;2390994;31;2742909;-55
2021/08/18 04:09:30;;;;;;;;;6.75;5.50;;;;;13.15;88.83;99652.75;2397223;31;1810198;-52
2021/08/18 04:11:58;;;;;;;;;6.00;6.00;;;;;13.03;91.37;99642.00;2402533;31;2739773;-55
2021/08/18 04:14:25;;;;;;;;;5.50;5.50;;;;;12.94;92.10;99639.00;2389669;31;2738782;-51
2021/08/18 04:16:52;;;;;;;;;5.50;5.50;;;;;13.13;89.81;99641.22;2391527;31;2735637;-55
2021/08/18 04:19:20;;;;;;;;;6.00;6.00;;;;;13.09;90.85;99637.03;2389567;39;2739784;-56
2021/08/18 04:21:47;;;;;;;;;8.50;7.00;;;;;13.26;90.73;99654.69;2390397;39;2735606;-56
2021/08/18 04:24:15;;;;;;;;;6.00;6.00;;;;;13.14;92.19;99652.88;2390800;31;2729372;-54
2021/08/18 04:26:43;;;;;;;;;7.50;6.00;;;;;12.94;92.25;99647.09;2389652;31;2746010;-58
2021/08/18 04:29:10;;;;;;;;;7.00;7.00;;;;;13.03;92.10;99658.16;2390388;31;2746024;-58
2021/08/18 04:31:38;;;;;;;;;8.00;6.00;;;;;12.86;92.87;99657.56;2397684;31;1810711;-59
2021/08/18 04:34:06;;;;;;;;;6.00;6.00;;;;;12.91;92.06;99659.94;2402873;31;2738759;-59
2021/08/18 04:36:33;;;;;;;;;8.50;6.00;;;;;13.17;91.21;99666.13;2389362;39;2741852;-59
2021/08/18 04:39:01;;;;;;;;;8.50;7.50;;;;;13.02;93.54;99656.44;2390193;31;2745998;-58
2021/08/18 04:41:28;;;;;;;;;6.00;4.00;;;;;12.89;94.22;99646.53;2389198;31;2742981;-56
2021/08/18 04:43:59;;;;;;;;;8.14;6.86;;;;;13.34;91.95;99652.28;2408215;31;3441815;-59
2021/08/18 04:46:27;;;;;;;;;7.00;7.00;;;;;13.44;91.15;99674.06;2402358;31;2735637;-59
2021/08/18 04:48:55;;;;;;;;;6.00;6.00;;;;;13.36;92.05;99677.31;2398331;31;1809665;-58
2021/08/18 04:51:23;;;;;;;;;9.25;8.00;;;;;13.22;91.09;99674.75;2397105;31;1802388;-55
2021/08/18 04:53:50;;;;;;;;;9.00;7.00;;;;;13.17;91.72;99671.53;2401698;39;2729364;-56
2021/08/18 04:56:21;;;;;;;;;7.57;5.00;;;;;13.46;91.02;99676.66;2407831;31;3459508;-55
2021/08/18 04:58:51;;;;;;;;;6.00;6.00;;;;;13.20;92.44;99682.06;2402303;31;2737661;-55
2021/08/18 05:01:18;;;;;;;;;10.50;7.00;;;;;13.19;93.29;99680.34;2388670;39;2749136;-56
2021/08/18 05:03:46;;;;;;;;;8.00;8.00;;;;;13.28;91.77;99673.47;2391936;31;2726275;-55
2021/08/18 05:06:13;;;;;;;;;7.00;6.00;;;;;13.09;92.40;99669.38;2389921;39;2741856;-58
2021/08/18 05:08:41;;;;;;;;;7.50;7.00;;;;;13.31;91.24;99663.31;2392040;31;2730402;-58
2021/08/18 05:11:08;;;;;;;;;7.00;7.00;;;;;13.28;91.28;99671.63;2390451;46;2748121;-58
2021/08/18 05:13:35;;;;;;;;;6.00;6.00;;;;;13.55;90.51;99674.13;2390339;31;2733554;-58
2021/08/18 05:16:03;;;;;;;;;5.00;5.00;;;;;13.49;90.01;99676.44;2390516;46;2735594;-58
2021/08/18 05:18:30;;;;;;;;;6.00;6.00;;;;;13.72;90.70;99689.06;2391176;31;2738758;-58
2021/08/18 05:20:58;;;;;;;;;10.00;10.00;;;;;13.82;89.52;99683.81;2393697;31;2793987;-58
2021/08/18 05:23:26;;;;;;;;;9.00;9.00;;;;;13.82;88.06;99684.72;2390127;31;2747088;-57
2021/08/18 05:25:53;;;;;;;;;9.50;9.00;;;;;14.03;87.06;99686.75;2389874;39;2755393;-57
2021/08/18 05:28:21;;;;;;;;;7.00;6.00;;;;;14.02;87.11;99691.28;2390815;31;2743951;-57
2021/08/18 05:30:48;;;;;;;;;12.00;8.50;;;;;14.10;86.72;99692.56;2390024;31;2768926;-58
2021/08/18 05:33:16;;;;;;;;;7.50;7.50;;;;;14.11;88.66;99697.81;2390395;39;2740196;-57
2021/08/18 05:35:45;;;;;;;;;6.80;5.60;;;;;14.05;87.24;99685.66;2400712;31;2735634;-57
2021/08/18 05:38:13;;;;;;;;;7.50;7.50;;;;;14.08;87.79;99676.44;2409109;31;1798329;-57
2021/08/18 05:40:41;;;;;;;;;6.00;5.00;;;;;14.14;88.47;99675.13;2403121;31;2746014;-57
2021/08/18 05:43:13;;;;;;;;;7.50;5.50;;;;;14.19;87.57;99679.22;2390445;31;2741867;-59
2021/08/18 05:45:41;;;;;;;;;6.00;5.00;;;;;14.15;86.98;99677.72;2390157;31;2742901;-58
2021/08/18 05:48:08;;;;;;;;;6.00;6.00;;;;;14.40;86.28;99673.13;2390806;31;2741848;-58
2021/08/18 05:50:36;;;;;;;;;8.00;5.00;;;;;14.53;85.46;99679.31;2390865;31;2748137;-58
2021/08/18 05:53:05;;;;;;;;;6.00;6.00;;;;;14.45;85.06;99679.88;2398354;31;1797138;-58
2021/08/18 05:55:32;;;;;;;;;4.00;4.00;;;;;14.22;85.85;99675.41;2402810;39;2747071;-54
2021/08/18 05:58:00;;;;;;;;;5.00;5.00;;;;;14.46;85.72;99686.16;2390012;31;2752303;-55
2021/08/18 06:00:29;;;;;;;;;5.60;5.60;;;;;14.59;84.76;99673.44;2400398;31;2740837;-54
2021/08/18 06:02:57;;;;;;;;;8.00;8.00;;;;;14.45;86.25;99665.50;2402475;31;2726251;-54
2021/08/18 06:05:26;;;;;;;;;4.50;3.00;;;;;14.60;85.21;99660.78;2391878;31;2741887;-56
2021/08/18 06:07:53;;;;;;;;;6.00;6.00;;;;;14.55;85.04;99671.97;2390805;31;2731443;-54
2021/08/18 06:10:21;;;;;;;;;5.00;5.00;;;;;14.84;83.80;99671.50;2389862;39;2739760;-55
2021/08/18 06:12:48;;;;;;;;;4.50;4.50;;;;;14.86;82.83;99680.34;2391214;31;2750189;-56
2021/08/18 06:15:16;;;;;;;;;6.50;5.00;;;;;14.81;84.31;99672.59;2390694;31;2748129;-56
2021/08/18 06:17:46;;;;;;;;;6.00;6.00;;;;;15.05;82.89;99669.78;2390769;39;2731455;-55
2021/08/18 06:20:18;;;;;;;;;6.00;6.00;;;;;15.27;82.42;99668.03;2390964;31;2735590;-55
2021/08/18 06:22:47;;;;;;;;;6.00;5.00;;;;;15.23;81.40;99658.47;2390241;31;2740849;-55
2021/08/18 06:25:16;;;;;;;;;6.00;5.00;;;;;15.19;81.86;99649.72;2389905;31;2748137;-56
2021/08/18 06:27:43;;;;;;;;;6.00;6.00;;;;;15.38;80.74;99654.50;2391761;31;2725182;-56
2021/08/18 06:30:13;;;;;;;;;6.00;5.60;;;;;15.50;79.34;99658.03;2400477;31;2732473;-56
2021/08/18 06:32:40;;;;;;;;;6.00;4.50;;;;;15.41;82.03;99656.97;2402683;31;2748113;-54
2021/08/18 06:35:08;;;;;;;;;5.00;5.00;;;;;15.85;77.73;99657.88;2390155;39;2741888;-53
2021/08/18 06:37:39;;;;;;;;;5.00;5.00;;;;;15.50;79.63;99652.63;2391286;31;2745016;-53
2021/08/18 06:40:09;;;;;;;;;5.00;4.00;;;;;15.42;79.72;99649.69;2391287;31;2749188;-54
2021/08/18 06:42:46;;;;;;;;;5.50;5.50;;;;;15.78;78.31;99656.66;2391627;31;2737717;-55
2021/08/18 06:45:15;;;;;;;;;7.50;5.00;;;;;15.96;78.35;99660.53;2390803;31;2736663;-57
2021/08/18 06:47:44;;;;;;;;;5.20;5.00;;;;;18.47;69.56;99668.88;2400201;31;2742890;-55
2021/08/18 06:50:13;;;;;;;;;7.00;5.00;;;;;23.33;52.50;99684.50;2403640;31;2748078;-57
2021/08/18 06:52:42;;;;;;;;;5.00;5.00;;;;;24.26;49.46;99687.28;2413178;31;2747040;-59
2021/08/18 06:55:11;;;;;;;;;3.00;3.00;;;;;24.91;48.00;99676.81;2403848;31;2749151;-57
2021/08/18 06:57:40;;;;;;;;;3.00;3.00;;;;;24.40;48.16;99671.06;2404690;31;2740833;-57
2021/08/18 07:00:11;;;;;;;;;4.00;4.00;;;;;22.65;52.21;99670.28;2413298;31;2752268;-58
2021/08/18 07:02:46;;;;;;;;;8.20;7.00;;;;;19.82;59.63;99653.00;2400214;31;2738703;-57
2021/08/18 07:05:19;;;;;;;;;6.00;6.00;;;;;19.56;61.40;99650.13;2404286;31;2740830;-58
2021/08/18 07:07:49;;;;;;;;;4.00;4.00;;;;;23.31;51.30;99673.75;2413920;31;2754351;-58
2021/08/18 07:10:17;;;;;;;;;5.67;3.00;;;;;23.65;49.76;99667.09;2391575;31;2738793;-56
2021/08/18 07:12:46;;;;;;;;;5.00;5.00;;;;;25.04;45.45;99677.00;2413187;39;2754383;-58
2021/08/18 07:15:16;;;;;;;;;2.80;2.80;;;;;26.03;44.30;99684.91;2400954;31;2737661;-57
2021/08/18 07:17:46;;;;;;;;;5.00;5.00;;;;;26.27;43.32;99694.69;2391106;31;2748085;-58
2021/08/18 07:20:14;;;;;;;;;5.00;5.00;;;;;25.61;45.19;99698.31;2402881;31;2745998;-58
2021/08/18 07:22:44;;;;;;;;;4.00;4.00;;;;;25.12;44.57;99687.91;2413438;31;2749127;-58
2021/08/18 07:25:13;;;;;;;;;4.00;4.00;;;;;22.87;50.34;99685.13;2401920;31;2736623;-59
2021/08/18 07:27:42;;;;;;;;;3.60;3.60;;;;;21.40;52.56;99671.25;2413119;31;2736647;-59
2021/08/18 07:30:12;;;;;;;;;4.80;4.80;;;;;21.98;50.68;99683.19;2412564;39;2741884;-59
2021/08/18 07:32:41;;;;;;;;;5.00;5.00;;;;;21.27;52.70;99680.75;2401183;31;2745998;-59
2021/08/18 07:35:10;;;;;;;;;5.00;5.00;;;;;19.93;55.74;99682.78;2392519;31;2746003;-59
2021/08/18 07:37:39;;;;;;;;;9.33;6.33;;;;;19.68;57.20;99681.63;2404680;31;2742914;-58
2021/08/18 07:40:08;;;;;;;;;7.00;6.67;;;;;19.38;58.18;99679.19;2403610;31;2731483;-59
2021/08/18 07:42:37;;;;;;;;;6.80;5.60;;;;;19.56;58.60;99682.81;2413921;31;2728342;-59
2021/08/18 07:45:06;;;;;;;;;5.33;5.33;;;;;19.90;58.90;99677.59;2403477;31;2747032;-59
2021/08/18 07:47:35;;;;;;;;;7.00;6.00;;;;;19.51;58.70;99680.56;2404084;31;2733499;-60
2021/08/18 07:50:05;;;;;;;;;4.00;4.00;;;;;19.87;58.01;99683.38;2404036;31;2750161;-59
2021/08/18 07:52:33;;;;;;;;;5.00;5.00;;;;;20.15;57.90;99686.03;2403553;31;2738766;-61
2021/08/18 07:55:05;;;;;;;;;5.80;4.80;;;;;19.45;59.58;99685.75;2413017;31;2745991;-59
2021/08/18 07:57:34;;;;;;;;;6.67;5.67;;;;;19.42;59.60;99686.91;2402995;31;2747036;-60
2021/08/18 08:00:07;;;;;;;;;5.00;5.00;;;;;19.21;58.99;99689.03;2403706;31;2740840;-59
2021/08/18 08:02:35;;;;;;;;;5.00;5.00;;;;;19.14;60.01;99682.47;2403407;31;2740802;-59
2021/08/18 08:05:08;;;;;;;;;8.00;8.00;;;;;18.95;61.46;99686.97;2403680;31;2745998;-59
2021/08/18 08:07:36;;;;;;;;;6.00;6.00;;;;;19.85;58.56;99685.41;2403821;31;2739796;-57
2021/08/18 08:10:10;;;;;;;;;8.33;6.67;;;;;20.15;57.91;99694.22;2403801;31;2743907;-61
2021/08/18 08:12:40;;;;;;;;;5.60;4.40;;;;;20.28;57.28;99699.28;2412775;31;2752286;-59
2021/08/18 08:15:12;;;;;;;;;7.67;5.00;;;;;20.42;55.86;99684.22;2403845;31;2740854;-60
2021/08/18 08:17:40;;;;;;;;;5.00;5.00;;;;;20.25;56.16;99686.81;2404731;31;2746058;-59
2021/08/18 08:20:09;;;;;;;;;6.00;6.00;;;;;20.47;55.22;99687.34;2403104;31;2742981;-59
2021/08/18 08:22:39;;;;;;;;;6.00;6.00;;;;;20.51;55.88;99689.59;2403627;31;2746040;-58
2021/08/18 08:25:08;;;;;;;;;3.67;3.00;;;;;20.82;53.57;99695.47;2404674;31;2750270;-59
2021/08/18 08:27:37;;;;;;;;;7.20;6.00;;;;;20.66;54.38;99691.78;2412592;31;2734589;-58
2021/08/18 08:30:06;;;;;;;;;5.67;5.67;;;;;20.86;54.45;99697.91;2402501;39;2746026;-58
2021/08/18 08:32:39;;;;;;;;;5.00;5.00;;;;;20.97;53.54;99694.91;2403678;31;2744965;-58
2021/08/18 08:35:09;;;;;;;;;6.33;6.33;;;;;21.97;52.39;99701.50;2404399;31;2743967;-59
2021/08/18 08:37:37;;;;;;;;;8.00;6.67;;;;;21.26;51.43;99689.94;2403837;39;2739846;-60
2021/08/18 08:40:06;;;;;;;;;6.33;5.67;;;;;21.47;50.98;99696.88;2404984;31;2737717;-58
2021/08/18 08:42:39;;;;;;;;;5.67;5.67;;;;;21.84;52.66;99692.91;2404740;31;2740164;-59
2021/08/18 08:45:10;;;;;;;;;4.67;3.00;;;;;21.68;50.28;99693.72;2404587;31;2740830;-59
2021/08/18 08:47:40;;;;;;;;;5.20;5.20;;;;;21.29;49.56;99693.38;2414195;31;2737670;-59
2021/08/18 08:50:12;;;;;;;;;6.00;6.00;;;;;21.61;48.89;99696.25;2404901;31;2728350;-59
2021/08/18 08:52:42;;;;;;;;;5.00;4.20;;;;;21.66;48.79;99687.56;2412741;31;2746018;-59
2021/08/18 08:55:11;;;;;;;;;5.67;5.67;;;;;21.69;49.41;99690.81;2404143;31;2744989;-58
2021/08/18 08:57:56;;;;;;;;;6.00;6.00;;;;;21.72;51.03;99688.78;2404296;31;2749116;-58
2021/08/18 09:00:26;;;;;;;;;8.00;7.20;;;;;21.72;49.30;99684.16;2414771;31;2728334;-58
2021/08/18 09:03:23;;;;;;;;;6.00;6.00;;;;;21.60;49.91;99686.34;2403618;31;2736632;-59
2021/08/18 09:06:04;;;;;;;;;6.00;5.60;;;;;21.78;48.79;99683.50;2414199;31;2744988;-58
2021/08/18 09:08:47;;;;;;;;;6.00;6.00;;;;;21.79;48.52;99684.34;2413500;39;2743931;-59
2021/08/18 09:11:18;;;;;;;;;6.67;6.67;;;;;21.90;48.83;99687.63;2404326;31;2737670;-57
2021/08/18 09:13:55;;;;;;;;;8.00;8.00;;;;;22.36;49.85;99687.22;2406016;31;2734536;-57
2021/08/18 09:16:33;;;;;;;;;5.00;4.67;;;;;21.97;47.93;99682.34;2404087;31;2745994;-57
2021/08/18 09:19:03;;;;;;;;;5.80;5.80;;;;;22.05;48.33;99679.63;2413545;31;2740810;-58
2021/08/18 09:21:51;;;;;;;;;6.00;6.00;;;;;22.24;48.66;99672.16;2404185;31;2739748;-60
2021/08/18 09:24:27;;;;;;;;;8.40;5.60;;;;;22.60;46.58;99671.81;2413944;31;2746050;-60
2021/08/18 09:27:08;;;;;;;;;8.00;7.00;;;;;22.60;47.52;99669.09;2413860;31;2740794;-60
2021/08/18 09:29:41;;;;;;;;;5.00;5.00;;;;;22.76;46.13;99672.66;2391155;31;2746006;-60
2021/08/18 09:32:33;;;;;;;;;5.40;5.40;;;;;22.35;44.91;99680.03;2413371;31;2754454;-60
2021/08/18 09:35:12;;;;;;;;;8.00;6.00;;;;;22.21;44.30;99672.50;2401235;31;2746070;-60
2021/08/18 09:38:13;;;;;;;;;8.00;7.40;;;;;22.54;45.17;99668.75;2403803;31;2738707;-60
2021/08/18 09:40:50;;;;;;;;;6.20;5.00;;;;;22.70;45.60;99667.03;2413327;31;2740841;-61
2021/08/18 09:43:27;;;;;;;;;7.00;6.33;;;;;21.99;46.50;99668.53;2403949;31;2735634;-62
2021/08/18 09:46:03;;;;;;;;;6.67;5.00;;;;;22.07;47.18;99671.28;2405992;31;2737673;-61
2021/08/18 09:48:35;;;;;;;;;8.20;7.40;;;;;22.54;46.99;99660.53;2414093;31;2737661;-61
2021/08/18 09:51:08;;;;;;;;;6.40;5.60;;;;;22.82;44.92;99671.09;2413501;31;2745991;-62
2021/08/18 09:53:41;;;;;;;;;5.60;5.60;;;;;22.92;44.39;99670.91;2414325;31;2737674;-62
2021/08/18 09:56:14;;;;;;;;;5.33;5.33;;;;;22.46;44.18;99671.50;2403957;31;2730813;-60
2021/08/18 09:58:48;;;;;;;;;6.60;5.00;;;;;22.67;42.42;99668.22;2412924;31;2746030;-60
2021/08/18 10:01:18;;;;;;;;;8.33;7.67;;;;;23.30;44.61;99672.03;2391053;31;2743943;-59
2021/08/18 10:03:52;;;;;;;;;7.00;7.00;;;;;22.91;44.16;99674.69;2413607;31;2721081;-59
2021/08/18 10:06:22;;;;;;;;;6.80;6.40;;;;;22.27;44.60;99677.28;2413083;31;2737689;-60
2021/08/18 10:08:53;;;;;;;;;8.00;6.67;;;;;22.35;44.25;99669.97;2402869;31;2735641;-60
2021/08/18 10:11:23;;;;;;;;;6.33;5.33;;;;;22.63;44.57;99666.00;2402903;39;2743998;-60
2021/08/18 10:13:54;;;;;;;;;5.20;5.00;;;;;22.76;44.96;99675.38;2412912;31;2739744;-60
2021/08/18 10:16:23;;;;;;;;;4.00;4.00;;;;;22.50;43.10;99672.84;2405811;31;2748113;-60
2021/08/18 10:18:55;;;;;;;;;4.33;4.33;;;;;22.59;44.03;99673.69;2404167;31;2747040;-60
2021/08/18 10:21:27;;;;;;;;;5.33;5.33;;;;;22.48;44.33;99661.22;2403906;31;2742888;-60
2021/08/18 10:24:05;;;;;;;;;6.00;5.71;;;;;22.49;45.45;99668.41;2421202;31;3444981;-60
2021/08/18 10:26:36;;;;;;;;;5.00;5.00;;;;;22.39;46.19;99661.41;2404033;31;2742896;-60
2021/08/18 10:29:16;;;;;;;;;5.67;5.67;;;;;22.58;46.80;99658.31;2402960;31;2747082;-60
2021/08/18 10:31:47;;;;;;;;;6.00;6.00;;;;;22.67;46.34;99672.81;2403916;31;2744968;-60
2021/08/18 10:34:23;;;;;;;;;4.00;4.00;;;;;21.62;47.27;99673.38;2414364;31;2754371;-60
2021/08/18 10:36:57;;;;;;;;;8.00;6.00;;;;;22.26;47.48;99667.38;2392940;31;2740836;-60
2021/08/18 10:39:30;;;;;;;;;6.40;5.00;;;;;21.64;46.81;99676.81;2413602;31;2739761;-59
2021/08/18 10:42:06;;;;;;;;;5.40;5.40;;;;;22.33;46.81;99669.25;2414414;39;2734588;-60
2021/08/18 10:44:38;;;;;;;;;7.33;5.33;;;;;21.64;48.32;99681.41;2404854;31;2731407;-60
2021/08/18 10:47:26;;;;;;;;;5.00;4.00;;;;;20.77;49.95;99667.84;2404053;31;2750217;-59
2021/08/18 10:50:16;;;;;;;;;4.67;4.67;;;;;22.17;47.80;99677.44;2403978;31;2739764;-61
2021/08/18 10:52:44;;;;;;;;;4.00;4.00;;;;;22.22;47.33;99674.19;2404278;31;2754358;-60
2021/08/18 10:55:24;;;;;;;;;5.33;4.33;;;;;21.56;47.68;99674.03;2403211;31;2750197;-60
2021/08/18 10:57:56;;;;;;;;;4.33;4.33;;;;;22.11;46.42;99673.47;2404271;31;2744964;-60
2021/08/18 11:00:42;;;;;;;;;4.40;3.80;;;;;22.63;46.79;99671.47;2413015;31;2749120;-60
2021/08/18 11:03:13;;;;;;;;;7.67;5.00;;;;;22.37;48.04;99672.50;2404039;31;2742921;-60
2021/08/18 11:05:53;;;;;;;;;6.67;6.67;;;;;22.91;47.19;99681.03;2403782;31;2736631;-60
2021/08/18 11:08:43;;;;;;;;;5.00;5.00;;;;;22.24;47.68;99677.63;2404091;31;2743943;-59
2021/08/18 11:11:14;;;;;;;;;5.67;5.67;;;;;21.42;49.11;99672.78;2404359;31;2748132;-60
2021/08/18 11:14:08;;;;;;;;;5.20;5.20;;;;;22.18;48.41;99683.75;2413103;39;2749123;-59
2021/08/18 11:16:37;;;;;;;;;5.00;5.00;;;;;22.00;49.63;99672.97;2391560;31;2748089;-60
2021/08/18 11:19:11;;;;;;;;;5.33;5.33;;;;;21.84;50.11;99682.84;2403666;31;2746018;-59
2021/08/18 11:21:44;;;;;;;;;6.60;6.60;;;;;22.71;47.58;99676.94;2413620;31;2740834;-59
2021/08/18 11:24:16;;;;;;;;;5.00;5.00;;;;;22.64;46.85;99674.03;2403248;31;2739752;-62
2021/08/18 11:26:49;;;;;;;;;5.00;5.00;;;;;22.60;47.97;99677.31;2413609;31;2743943;-59
2021/08/18 11:29:20;;;;;;;;;5.00;5.00;;;;;22.28;47.00;99668.91;2412980;31;2740827;-59
2021/08/18 11:31:56;;;;;;;;;5.33;5.33;;;;;21.91;48.68;99672.09;2404907;31;2737713;-59